createdAt,value
2022-11-15T00:01:40.453Z,85.66
2022-11-15T00:05:08.142Z,85.98
2022-11-15T00:08:35.650Z,86.10
2022-11-15T00:12:03.131Z,86.25
2022-11-15T00:15:32.435Z,85.83
2022-11-15T00:19:00.292Z,85.00
2022-11-15T00:22:32.965Z,85.43
2022-11-15T00:26:00.218Z,85.59
2022-11-15T00:29:27.559Z,86.20
2022-11-15T00:32:56.377Z,86.08
2022-11-15T00:36:23.680Z,85.29
2022-11-15T00:39:50.868Z,85.84
2022-11-15T00:43:18.206Z,85.65
2022-11-15T00:46:45.236Z,85.16
2022-11-15T00:50:15.561Z,83.61
2022-11-15T00:53:42.855Z,84.55
2022-11-15T00:57:10.159Z,85.29
2022-11-15T01:00:37.154Z,85.03
2022-11-15T01:04:04.364Z,86.06
2022-11-15T01:07:33.181Z,85.15
2022-11-15T01:11:03.662Z,85.99
2022-11-15T01:14:31.016Z,85.77
2022-11-15T01:17:58.361Z,86.19
2022-11-15T01:21:25.346Z,85.73
2022-11-15T01:24:54.168Z,85.41
2022-11-15T01:28:21.647Z,85.36
2022-11-15T01:31:48.938Z,84.96
2022-11-15T01:35:16.295Z,84.39
2022-11-15T01:38:43.611Z,84.26
2022-11-15T01:42:15.525Z,84.81
2022-11-15T01:45:42.745Z,84.90
2022-11-15T01:49:16.296Z,84.72
2022-11-15T01:52:44.331Z,85.09
2022-11-15T01:56:17.121Z,85.09
2022-11-15T01:59:48.532Z,84.13
2022-11-15T02:03:16.886Z,84.15
2022-11-15T02:06:46.329Z,84.56
2022-11-15T02:10:19.954Z,84.01
2022-11-15T02:13:47.920Z,83.37
2022-11-15T02:17:31.646Z,84.02
2022-11-15T02:21:19.391Z,83.90
2022-11-15T02:25:16.442Z,83.62
2022-11-15T02:28:53.907Z,82.80
2022-11-15T02:32:30.517Z,84.03
2022-11-15T02:36:02.961Z,83.78
2022-11-15T02:39:38.031Z,83.80
2022-11-15T02:44:01.196Z,83.35
2022-11-15T02:47:32.175Z,82.99
2022-11-15T02:51:00.170Z,82.80
2022-11-15T02:54:29.074Z,82.96
2022-11-15T02:58:11.728Z,83.01
2022-11-15T03:01:53.918Z,82.23
2022-11-15T03:05:32.558Z,82.46
2022-11-15T03:09:10.110Z,81.74
2022-11-15T03:12:43.397Z,82.17
2022-11-15T03:16:17.527Z,81.64
2022-11-15T03:19:48.631Z,82.06
2022-11-15T03:23:19.133Z,83.16
2022-11-15T03:26:50.080Z,82.30
2022-11-15T03:30:18.228Z,82.71
2022-11-15T03:33:46.021Z,81.62
2022-11-15T03:37:15.329Z,82.27
2022-11-15T03:40:47.419Z,83.05
2022-11-15T03:44:23.120Z,82.73
2022-11-15T03:47:55.733Z,83.62
2022-11-15T03:51:23.445Z,83.61
2022-11-15T03:54:52.451Z,83.73
2022-11-15T03:58:21.073Z,84.28
2022-11-15T04:01:48.928Z,84.51
2022-11-15T04:05:16.096Z,84.18
2022-11-15T04:08:43.437Z,84.19
2022-11-15T04:12:10.811Z,83.64
2022-11-15T04:15:39.505Z,83.39
2022-11-15T04:19:24.300Z,83.75
2022-11-15T04:23:11.234Z,83.63
2022-11-15T04:26:38.152Z,84.12
2022-11-15T04:30:06.655Z,84.17
2022-11-15T04:33:35.201Z,83.57
2022-11-15T04:37:14.933Z,84.55
2022-11-15T04:40:41.862Z,84.02
2022-11-15T04:44:09.028Z,83.87
2022-11-15T04:47:36.171Z,83.53
2022-11-15T04:51:04.851Z,83.90
2022-11-15T04:54:32.570Z,84.11
2022-11-15T04:58:03.869Z,84.43
2022-11-15T05:01:31.068Z,82.72
2022-11-15T05:04:57.196Z,83.32
2022-11-15T05:08:25.852Z,83.42
2022-11-15T05:11:52.820Z,84.12
2022-11-15T05:15:20.146Z,84.13
2022-11-15T05:18:47.471Z,83.52
2022-11-15T05:22:15.109Z,83.63
2022-11-15T05:25:43.823Z,84.54
2022-11-15T05:29:13.442Z,84.61
2022-11-15T05:32:41.853Z,83.34
2022-11-15T05:36:14.224Z,83.68
2022-11-15T05:39:41.406Z,84.75
2022-11-15T05:43:11.786Z,84.96
2022-11-15T05:46:41.280Z,85.17
2022-11-15T05:50:09.235Z,84.46
2022-11-15T05:53:36.893Z,84.69
2022-11-15T05:57:05.575Z,85.44
2022-11-15T06:00:34.079Z,84.42
2022-11-15T06:04:01.498Z,85.07
2022-11-15T06:07:28.946Z,84.91
2022-11-15T06:10:56.237Z,84.76
2022-11-15T06:14:23.562Z,83.18
2022-11-15T06:17:52.090Z,84.27
2022-11-15T06:21:19.307Z,83.45
2022-11-15T06:24:46.792Z,83.58
2022-11-15T06:28:13.696Z,84.28
2022-11-15T06:31:40.989Z,84.31
2022-11-15T06:35:09.989Z,85.28
2022-11-15T06:38:37.408Z,83.44
2022-11-15T06:42:04.749Z,84.04
2022-11-15T06:45:32.325Z,83.68
2022-11-15T06:48:59.277Z,83.96
2022-11-15T06:52:27.789Z,84.08
2022-11-15T06:55:55.883Z,84.45
2022-11-15T06:59:23.346Z,84.02
2022-11-15T07:02:51.075Z,83.31
2022-11-15T07:06:18.258Z,83.77
2022-11-15T07:09:46.937Z,83.64
2022-11-15T07:13:15.682Z,82.12
2022-11-15T07:16:43.297Z,83.15
2022-11-15T07:20:11.166Z,82.08
2022-11-15T07:23:39.997Z,82.03
2022-11-15T07:27:08.885Z,82.26
2022-11-15T07:30:37.335Z,82.07
2022-11-15T07:34:06.128Z,80.59
2022-11-15T07:37:33.516Z,80.26
2022-11-15T07:41:02.065Z,77.85
2022-11-15T07:44:30.765Z,79.38
2022-11-15T07:47:58.358Z,81.14
2022-11-15T07:51:25.909Z,79.95
2022-11-15T07:54:53.023Z,79.37
2022-11-15T07:58:20.298Z,79.86
2022-11-15T08:01:48.990Z,76.27
2022-11-15T08:05:16.649Z,75.28
2022-11-15T08:08:43.624Z,77.44
2022-11-15T08:12:10.858Z,77.07
2022-11-15T08:15:38.762Z,74.97
2022-11-15T08:19:07.486Z,76.22
2022-11-15T08:22:35.526Z,74.13
2022-11-15T08:26:04.259Z,73.63
2022-11-15T08:29:31.419Z,73.39
2022-11-15T08:33:00.473Z,72.37
2022-11-15T08:36:34.766Z,71.41
2022-11-15T08:40:10.652Z,71.91
2022-11-15T08:43:37.761Z,71.28
2022-11-15T08:47:05.135Z,71.43
2022-11-15T08:50:32.800Z,71.71
2022-11-15T08:54:01.519Z,70.86
2022-11-15T08:57:31.840Z,69.50
2022-11-15T09:00:58.965Z,69.69
2022-11-15T09:04:26.047Z,70.37
2022-11-15T09:07:56.006Z,69.90
2022-11-15T09:11:24.597Z,67.68
2022-11-15T09:14:51.565Z,66.48
2022-11-15T09:18:20.218Z,66.57
2022-11-15T09:21:49.441Z,67.95
2022-11-15T09:25:16.563Z,67.02
2022-11-15T09:28:45.174Z,67.32
2022-11-15T09:32:12.691Z,66.54
2022-11-15T09:35:40.188Z,67.00
2022-11-15T09:39:07.398Z,64.29
2022-11-15T09:42:57.963Z,64.18
2022-11-15T09:46:39.960Z,63.19
2022-11-15T09:50:12.229Z,64.15
2022-11-15T09:54:23.856Z,62.48
2022-11-15T09:57:16.360Z,61.43
2022-11-15T10:00:49.867Z,62.13
2022-11-15T10:04:00.610Z,60.38
2022-11-15T10:07:20.691Z,60.22
2022-11-15T10:10:38.734Z,60.74
2022-11-15T10:13:50.634Z,60.66
2022-11-15T10:17:46.904Z,58.94
2022-11-15T10:21:02.122Z,58.96
2022-11-15T10:24:14.743Z,59.13
2022-11-15T10:27:25.649Z,59.45
2022-11-15T10:30:38.339Z,59.09
2022-11-15T10:33:46.567Z,59.06
2022-11-15T10:37:02.705Z,58.61
2022-11-15T10:40:21.769Z,58.00
2022-11-15T10:43:29.980Z,55.55
2022-11-15T10:46:48.621Z,56.48
2022-11-15T10:50:09.479Z,55.30
2022-11-15T10:53:26.369Z,53.85
2022-11-15T10:56:34.619Z,54.28
2022-11-15T10:59:49.346Z,55.05
2022-11-15T11:03:04.182Z,54.51
2022-11-15T11:06:16.400Z,54.38
2022-11-15T11:09:34.376Z,55.10
2022-11-15T11:12:42.683Z,56.24
2022-11-15T11:15:59.893Z,55.23
2022-11-15T11:19:29.927Z,54.16
2022-11-15T11:22:57.738Z,54.33
2022-11-15T11:26:37.212Z,53.69
2022-11-15T11:30:04.645Z,53.42
2022-11-15T11:33:22.299Z,53.16
2022-11-15T11:36:46.255Z,53.57
2022-11-15T11:40:11.059Z,52.00
2022-11-15T11:43:39.202Z,51.60
2022-11-15T11:46:57.185Z,51.50
2022-11-15T11:50:18.221Z,50.92
2022-11-15T11:53:33.357Z,52.54
2022-11-15T11:56:45.951Z,52.84
2022-11-15T12:00:04.382Z,54.10
2022-11-15T12:03:31.342Z,53.20
2022-11-15T12:06:47.709Z,52.89
2022-11-15T12:10:03.590Z,50.51
2022-11-15T12:13:18.793Z,52.75
2022-11-15T12:16:31.946Z,51.48
2022-11-15T12:19:41.405Z,51.84
2022-11-15T12:22:58.941Z,51.57
2022-11-15T12:26:13.548Z,51.19
2022-11-15T12:29:29.989Z,52.00
2022-11-15T12:32:51.610Z,51.94
2022-11-15T12:36:04.096Z,54.52
2022-11-15T12:39:14.130Z,51.48
2022-11-15T12:42:43.816Z,50.49
2022-11-15T12:45:52.108Z,49.74
2022-11-15T12:49:03.843Z,50.64
2022-11-15T12:52:12.455Z,50.18
2022-11-15T12:55:35.171Z,49.34
2022-11-15T12:58:47.378Z,48.52
2022-11-15T13:02:02.493Z,48.18
2022-11-15T13:06:10.736Z,48.84
2022-11-15T13:09:56.378Z,49.19
2022-11-15T13:13:09.404Z,48.41
2022-11-15T13:16:22.925Z,48.49
2022-11-15T13:19:31.579Z,47.77
2022-11-15T13:22:53.261Z,48.68
2022-11-15T13:26:17.463Z,49.03
2022-11-15T13:29:25.904Z,49.78
2022-11-15T13:32:34.468Z,50.21
2022-11-15T13:35:47.286Z,51.27
2022-11-15T13:39:06.914Z,51.50
2022-11-15T13:42:18.516Z,51.77
2022-11-15T13:45:28.303Z,52.54
2022-11-15T13:48:37.098Z,53.45
2022-11-15T13:51:51.423Z,53.04
2022-11-15T13:55:06.981Z,53.02
2022-11-15T13:58:17.879Z,53.23
2022-11-15T14:01:34.052Z,52.62
2022-11-15T14:04:51.635Z,54.09
2022-11-15T14:08:03.628Z,54.92
2022-11-15T14:11:19.032Z,55.92
2022-11-15T14:14:29.400Z,56.05
2022-11-15T14:17:45.729Z,56.24
2022-11-15T14:21:09.792Z,57.03
2022-11-15T14:24:19.903Z,57.61
2022-11-15T14:27:31.216Z,57.59
2022-11-15T14:30:41.505Z,57.99
2022-11-15T14:33:50.402Z,58.08
2022-11-15T14:36:58.636Z,58.77
2022-11-15T14:40:10.595Z,59.65
2022-11-15T14:43:20.463Z,59.08
2022-11-15T14:46:28.640Z,60.47
2022-11-15T14:49:36.892Z,61.01
2022-11-15T14:52:45.719Z,59.46
2022-11-15T14:55:54.035Z,61.01
2022-11-15T14:59:03.743Z,61.93
2022-11-15T15:02:20.040Z,61.90
2022-11-15T15:05:34.239Z,63.18
2022-11-15T15:08:42.782Z,63.80
2022-11-15T15:11:50.997Z,64.47
2022-11-15T15:15:00.566Z,65.22
2022-11-15T15:18:09.617Z,65.46
2022-11-15T15:21:24.477Z,66.71
2022-11-15T15:24:32.738Z,67.28
2022-11-15T15:27:40.997Z,67.94
2022-11-15T15:30:51.477Z,69.03
2022-11-15T15:33:59.869Z,69.85
2022-11-15T15:37:27.378Z,69.74
2022-11-15T15:40:35.955Z,70.79
2022-11-15T15:43:44.890Z,71.68
2022-11-15T15:46:54.827Z,72.76
2022-11-15T15:50:03.300Z,73.17
2022-11-15T15:53:13.676Z,73.27
2022-11-15T15:56:21.958Z,74.34
2022-11-15T15:59:30.219Z,75.16
2022-11-15T16:02:40.767Z,75.51
2022-11-15T16:05:49.206Z,75.27
2022-11-15T16:09:13.951Z,75.83
2022-11-15T16:12:22.888Z,76.64
2022-11-15T16:15:34.201Z,76.86
2022-11-15T16:18:44.329Z,78.31
2022-11-15T16:21:53.065Z,77.95
2022-11-15T16:25:01.306Z,78.86
2022-11-15T16:28:19.913Z,78.19
2022-11-15T16:31:28.331Z,77.97
2022-11-15T16:34:41.858Z,78.73
2022-11-15T16:37:52.073Z,78.81
2022-11-15T16:41:01.486Z,78.69
2022-11-15T16:44:09.700Z,78.90
2022-11-15T16:47:20.390Z,78.76
2022-11-15T16:50:35.238Z,78.55
2022-11-15T16:53:44.304Z,78.49
2022-11-15T16:56:53.728Z,78.19
2022-11-15T17:00:01.942Z,78.74
2022-11-15T17:03:10.286Z,78.63
2022-11-15T17:06:20.492Z,79.29
2022-11-15T17:09:28.785Z,79.06
2022-11-15T17:12:37.774Z,79.01
2022-11-15T17:15:46.026Z,79.19
2022-11-15T17:18:54.554Z,79.35
2022-11-15T17:22:04.274Z,79.54
2022-11-15T17:25:12.915Z,79.47
2022-11-15T17:28:21.251Z,79.97
2022-11-15T17:31:33.696Z,80.07
2022-11-15T17:34:42.230Z,79.98
2022-11-15T17:37:52.734Z,80.42
2022-11-15T17:41:05.616Z,79.84
2022-11-15T17:44:14.625Z,80.04
2022-11-15T17:47:24.388Z,80.41
2022-11-15T17:50:32.726Z,79.77
2022-11-15T17:53:45.203Z,79.57
2022-11-15T17:56:54.220Z,79.65
2022-11-15T18:00:03.436Z,80.90
2022-11-15T18:03:12.822Z,81.96
2022-11-15T18:06:23.476Z,81.87
2022-11-15T18:09:33.266Z,81.64
2022-11-15T18:12:41.841Z,81.38
2022-11-15T18:15:56.216Z,81.95
2022-11-15T18:19:08.928Z,82.16
2022-11-15T18:22:18.453Z,81.65
2022-11-15T18:25:28.822Z,81.90
2022-11-15T18:28:41.927Z,81.67
2022-11-15T18:31:50.605Z,81.81
2022-11-15T18:34:59.428Z,82.32
2022-11-15T18:38:07.587Z,81.81
2022-11-15T18:41:20.858Z,81.72
2022-11-15T18:44:30.118Z,81.63
2022-11-15T18:47:38.665Z,80.67
2022-11-15T18:50:50.440Z,81.02
2022-11-15T18:54:03.794Z,80.87
2022-11-15T18:57:14.242Z,80.84
2022-11-15T19:00:22.855Z,81.22
2022-11-15T19:03:34.512Z,80.54
2022-11-15T19:06:46.377Z,80.28
2022-11-15T19:09:54.816Z,80.25
2022-11-15T19:13:05.154Z,80.06
2022-11-15T19:16:16.736Z,80.02
2022-11-15T19:19:28.323Z,79.89
2022-11-15T19:22:36.565Z,80.22
2022-11-15T19:25:44.889Z,80.01
2022-11-15T19:28:57.970Z,80.49
2022-11-15T19:32:07.835Z,80.56
2022-11-15T19:35:16.883Z,80.33
2022-11-15T19:38:25.209Z,80.97
2022-11-15T19:41:34.532Z,81.22
2022-11-15T19:44:44.663Z,81.74
2022-11-15T19:47:53.061Z,81.50
2022-11-15T19:51:04.906Z,81.50
2022-11-15T19:54:16.868Z,81.93
2022-11-15T19:57:27.147Z,81.33
2022-11-15T20:00:37.435Z,81.55
2022-11-15T20:03:47.025Z,81.28
2022-11-15T20:06:55.646Z,80.07
2022-11-15T20:10:05.025Z,80.29
2022-11-15T20:13:14.803Z,80.20
2022-11-15T20:16:25.360Z,81.39
2022-11-15T20:19:36.222Z,81.18
2022-11-15T20:22:44.733Z,81.06
2022-11-15T20:25:53.967Z,81.18
2022-11-15T20:29:03.536Z,81.39
2022-11-15T20:32:14.384Z,81.64
2022-11-15T20:35:22.854Z,80.97
2022-11-15T20:38:31.874Z,80.83
2022-11-15T20:41:42.003Z,80.84
2022-11-15T20:44:50.242Z,80.23
2022-11-15T20:48:00.678Z,80.60
2022-11-15T20:51:12.854Z,79.66
2022-11-15T20:54:21.215Z,79.58
2022-11-15T20:57:30.050Z,78.93
2022-11-15T21:00:39.051Z,80.49
2022-11-15T21:03:48.937Z,80.39
2022-11-15T21:06:58.379Z,80.70
2022-11-15T21:10:24.860Z,81.12
2022-11-15T21:13:33.354Z,81.71
2022-11-15T21:16:41.790Z,81.41
2022-11-15T21:19:51.444Z,80.62
2022-11-15T21:22:59.875Z,80.63
2022-11-15T21:26:08.078Z,80.37
2022-11-15T21:29:17.093Z,80.58
2022-11-15T21:32:28.913Z,80.34
2022-11-15T21:35:38.550Z,80.05
2022-11-15T21:38:46.898Z,80.51
2022-11-15T21:41:56.344Z,79.33
2022-11-15T21:45:05.820Z,80.13
2022-11-15T21:48:14.199Z,80.37
2022-11-15T21:51:25.328Z,80.40
2022-11-15T21:54:33.667Z,80.82
2022-11-15T21:57:42.053Z,80.61
2022-11-15T22:01:09.072Z,80.55
2022-11-15T22:04:17.555Z,81.43
2022-11-15T22:07:27.259Z,81.72
2022-11-15T22:10:35.516Z,81.49
2022-11-15T22:13:44.295Z,80.72
2022-11-15T22:16:52.539Z,81.12
2022-11-15T22:20:11.594Z,81.15
2022-11-15T22:23:34.210Z,81.50
2022-11-15T22:26:42.445Z,81.73
2022-11-15T22:29:50.643Z,81.55
2022-11-15T22:32:58.924Z,82.25
2022-11-15T22:36:09.096Z,82.45
2022-11-15T22:39:18.825Z,82.41
2022-11-15T22:42:27.126Z,82.55
2022-11-15T22:45:35.889Z,83.77
2022-11-15T22:48:47.318Z,83.26
2022-11-15T22:51:55.608Z,82.75
2022-11-15T22:55:06.482Z,82.51
2022-11-15T22:58:14.846Z,81.96
2022-11-15T23:01:23.557Z,81.32
2022-11-15T23:04:31.885Z,81.30
2022-11-15T23:07:40.093Z,81.40
2022-11-15T23:11:07.659Z,81.81
2022-11-15T23:14:16.130Z,81.01
2022-11-15T23:17:24.619Z,81.10
2022-11-15T23:20:43.005Z,82.24
2022-11-15T23:23:51.877Z,82.28
2022-11-15T23:27:04.523Z,82.68
2022-11-15T23:30:33.332Z,82.20
2022-11-15T23:33:59.543Z,82.15
2022-11-15T23:37:10.323Z,81.89
2022-11-15T23:40:19.253Z,81.46
2022-11-15T23:43:29.130Z,81.01
2022-11-15T23:46:37.491Z,81.10
2022-11-15T23:49:45.759Z,81.12
2022-11-15T23:52:54.005Z,80.67
2022-11-15T23:56:06.067Z,80.61
2022-11-15T23:59:16.051Z,80.57
